createdAt,value
2022-08-31T00:03:15.271Z,67.41
2022-08-31T00:08:17.918Z,67.63
2022-08-31T00:13:20.163Z,67.54
2022-08-31T00:18:23.432Z,67.56
2022-08-31T00:23:26.155Z,67.67
2022-08-31T00:28:28.466Z,67.74
2022-08-31T00:33:30.677Z,67.70
2022-08-31T00:38:34.592Z,67.93
2022-08-31T00:43:48.657Z,68.63
2022-08-31T00:49:12.539Z,68.42
2022-08-31T00:54:19.389Z,67.89
2022-08-31T00:59:22.325Z,67.67
2022-08-31T01:04:24.580Z,68.16
2022-08-31T01:09:27.819Z,68.09
2022-08-31T01:14:30.333Z,68.07
2022-08-31T01:19:35.545Z,68.40
2022-08-31T01:24:39.963Z,68.65
2022-08-31T01:29:42.357Z,68.45
2022-08-31T01:34:44.587Z,68.54
2022-08-31T01:39:47.061Z,68.74
2022-08-31T01:44:49.460Z,68.95
2022-08-31T01:49:51.825Z,69.05
2022-08-31T01:54:58.344Z,68.81
2022-08-31T02:00:04.428Z,69.40
2022-08-31T02:05:22.938Z,69.38
2022-08-31T02:10:25.716Z,69.63
2022-08-31T02:15:27.975Z,69.49
2022-08-31T02:20:30.428Z,69.30
2022-08-31T02:25:33.146Z,69.50
2022-08-31T02:30:36.883Z,69.75
2022-08-31T02:35:39.247Z,70.12
2022-08-31T02:40:42.138Z,69.72
2022-08-31T02:45:45.530Z,70.07
2022-08-31T02:51:05.479Z,70.37
2022-08-31T02:56:08.364Z,70.07
2022-08-31T03:01:10.953Z,69.97
2022-08-31T03:06:13.648Z,70.32
2022-08-31T03:11:16.755Z,69.91
2022-08-31T03:16:19.453Z,70.01
2022-08-31T03:21:21.811Z,70.27
2022-08-31T03:26:24.559Z,70.47
2022-08-31T03:31:27.094Z,70.43
2022-08-31T03:36:30.613Z,70.25
2022-08-31T03:41:33.492Z,70.37
2022-08-31T03:46:36.205Z,70.28
2022-08-31T03:51:38.810Z,70.59
2022-08-31T03:56:42.190Z,70.36
2022-08-31T04:01:44.604Z,70.65
2022-08-31T04:07:05.494Z,70.22
2022-08-31T04:12:40.192Z,70.17
2022-08-31T04:18:01.728Z,70.24
2022-08-31T04:23:20.191Z,70.16
2022-08-31T04:28:26.957Z,70.14
2022-08-31T04:33:29.260Z,70.32
2022-08-31T04:38:33.259Z,69.98
2022-08-31T04:43:37.203Z,70.08
2022-08-31T04:48:40.436Z,70.15
2022-08-31T04:53:44.414Z,70.21
2022-08-31T04:58:53.078Z,69.77
2022-08-31T05:03:57.092Z,69.59
2022-08-31T05:09:04.164Z,69.56
2022-08-31T05:14:07.369Z,69.80
2022-08-31T05:19:13.917Z,69.47
2022-08-31T05:24:22.737Z,70.12
2022-08-31T05:29:26.418Z,70.00
2022-08-31T05:34:45.808Z,69.53
2022-08-31T05:39:48.231Z,69.65
2022-08-31T05:44:50.661Z,69.64
2022-08-31T05:49:53.129Z,69.29
2022-08-31T05:54:56.933Z,69.24
2022-08-31T05:59:59.194Z,69.39
2022-08-31T06:05:02.375Z,69.34
2022-08-31T06:10:06.027Z,68.69
2022-08-31T06:15:09.898Z,68.68
2022-08-31T06:20:17.007Z,67.93
2022-08-31T06:25:23.801Z,67.03
2022-08-31T06:30:27.739Z,66.77
2022-08-31T06:35:32.156Z,66.55
2022-08-31T06:40:54.688Z,66.30
2022-08-31T06:46:27.096Z,65.97
2022-08-31T06:51:39.126Z,66.09
2022-08-31T06:56:41.565Z,65.66
2022-08-31T07:02:07.680Z,65.78
2022-08-31T07:07:11.704Z,65.50
2022-08-31T07:12:15.823Z,65.17
2022-08-31T07:17:18.220Z,65.00
2022-08-31T07:22:20.625Z,65.08
2022-08-31T07:27:27.709Z,65.24
2022-08-31T07:32:34.392Z,65.39
2022-08-31T07:37:56.004Z,66.06
2022-08-31T07:43:04.866Z,66.64
2022-08-31T07:48:10.507Z,67.75
2022-08-31T07:53:28.642Z,67.37
2022-08-31T07:58:50.379Z,67.26
2022-08-31T08:03:55.116Z,66.95
2022-08-31T08:09:24.923Z,66.38
2022-08-31T08:14:45.989Z,66.31
2022-08-31T08:19:55.169Z,66.15
2022-08-31T08:25:01.320Z,65.85
2022-08-31T08:30:16.592Z,65.99
2022-08-31T08:35:19.713Z,66.03
2022-08-31T08:40:30.661Z,65.79
2022-08-31T08:45:34.171Z,65.54
2022-08-31T08:50:40.094Z,65.47
2022-08-31T08:55:42.941Z,66.07
2022-08-31T09:00:51.459Z,65.52
2022-08-31T09:06:09.851Z,65.36
2022-08-31T09:11:50.353Z,65.15
2022-08-31T09:17:04.447Z,65.00
2022-08-31T09:22:07.342Z,64.99
2022-08-31T09:27:18.462Z,64.50
2022-08-31T09:32:26.661Z,65.16
2022-08-31T09:37:34.404Z,64.63
2022-08-31T09:42:37.077Z,64.72
2022-08-31T09:47:48.835Z,64.75
2022-08-31T09:53:11.448Z,64.58
2022-08-31T09:58:14.671Z,64.70
2022-08-31T10:03:28.658Z,64.52
2022-08-31T10:08:57.299Z,64.08
2022-08-31T10:14:08.934Z,63.34
2022-08-31T10:19:20.847Z,63.25
2022-08-31T10:24:34.809Z,61.69
2022-08-31T10:29:46.373Z,61.62
2022-08-31T10:35:06.184Z,60.69
2022-08-31T10:40:21.946Z,61.05
2022-08-31T10:45:26.665Z,61.35
2022-08-31T10:50:35.887Z,60.67
2022-08-31T10:55:54.298Z,60.75
2022-08-31T11:01:21.266Z,60.24
2022-08-31T11:07:28.165Z,61.00
2022-08-31T11:12:42.784Z,60.38
2022-08-31T11:18:12.494Z,60.11
2022-08-31T11:23:42.199Z,59.40
2022-08-31T11:28:50.395Z,59.11
2022-08-31T11:34:15.115Z,59.16
2022-08-31T11:39:31.315Z,57.74
2022-08-31T11:44:34.368Z,57.92
2022-08-31T11:49:46.968Z,56.71
2022-08-31T11:54:50.633Z,57.68
2022-08-31T11:59:56.397Z,56.85
2022-08-31T12:05:03.372Z,56.68
2022-08-31T12:10:23.012Z,55.43
2022-08-31T12:15:38.204Z,54.35
2022-08-31T12:21:08.160Z,54.67
2022-08-31T12:26:35.444Z,55.22
2022-08-31T12:31:40.505Z,55.26
2022-08-31T12:36:44.020Z,55.59
2022-08-31T12:42:06.551Z,55.02
2022-08-31T12:47:27.716Z,54.03
2022-08-31T12:52:45.764Z,54.05
2022-08-31T12:58:04.644Z,54.06
2022-08-31T13:03:27.304Z,53.30
2022-08-31T13:08:42.224Z,52.50
2022-08-31T13:13:44.665Z,53.21
2022-08-31T13:18:47.198Z,52.29
2022-08-31T13:23:50.854Z,52.55
2022-08-31T13:28:56.479Z,52.74
2022-08-31T13:34:01.436Z,53.17
2022-08-31T13:39:12.549Z,52.01
2022-08-31T13:44:21.564Z,51.60
2022-08-31T13:49:31.175Z,51.65
2022-08-31T13:54:36.149Z,52.19
2022-08-31T13:59:40.082Z,52.72
2022-08-31T14:04:57.498Z,53.23
2022-08-31T14:10:08.209Z,53.16
2022-08-31T14:15:16.099Z,53.27
2022-08-31T14:20:33.977Z,52.85
2022-08-31T14:25:36.336Z,52.95
2022-08-31T14:30:39.330Z,53.07
2022-08-31T14:35:41.865Z,53.71
2022-08-31T14:40:45.020Z,53.93
2022-08-31T14:45:47.844Z,53.49
2022-08-31T14:50:50.205Z,52.66
2022-08-31T14:55:52.470Z,52.75
2022-08-31T15:00:55.112Z,53.31
2022-08-31T15:06:00.386Z,52.87
2022-08-31T15:11:04.179Z,52.92
2022-08-31T15:16:08.417Z,53.48
2022-08-31T15:21:11.854Z,53.95
2022-08-31T15:26:17.353Z,54.39
2022-08-31T15:31:23.967Z,54.18
2022-08-31T15:36:28.193Z,54.17
2022-08-31T15:41:31.348Z,53.99
2022-08-31T15:46:52.272Z,53.63
2022-08-31T15:51:57.793Z,53.74
2022-08-31T15:57:02.645Z,53.69
2022-08-31T16:02:06.721Z,53.53
2022-08-31T16:07:11.381Z,54.08
2022-08-31T16:12:15.158Z,53.73
2022-08-31T16:17:20.216Z,53.79
2022-08-31T16:22:23.401Z,53.86
2022-08-31T16:27:34.327Z,53.55
2022-08-31T16:32:36.917Z,53.89
2022-08-31T16:37:40.390Z,53.65
2022-08-31T16:42:45.026Z,53.65
2022-08-31T16:47:47.479Z,53.90
2022-08-31T16:52:51.306Z,53.50
2022-08-31T16:57:53.811Z,53.49
2022-08-31T17:02:56.180Z,53.38
2022-08-31T17:07:58.680Z,53.64
2022-08-31T17:13:01.073Z,53.47
2022-08-31T17:18:03.467Z,53.83
2022-08-31T17:23:07.163Z,53.57
2022-08-31T17:28:10.339Z,53.71
2022-08-31T17:33:13.022Z,53.60
2022-08-31T17:38:15.539Z,53.56
2022-08-31T17:43:20.318Z,53.33
2022-08-31T17:48:24.083Z,53.76
2022-08-31T17:53:26.630Z,53.73
2022-08-31T17:58:29.195Z,53.71
2022-08-31T18:03:31.678Z,53.80
2022-08-31T18:08:37.863Z,53.75
2022-08-31T18:13:41.893Z,54.11
2022-08-31T18:18:48.499Z,53.98
2022-08-31T18:23:52.722Z,54.16
2022-08-31T18:28:57.944Z,54.61
2022-08-31T18:34:02.115Z,54.42
2022-08-31T18:39:06.824Z,54.70
2022-08-31T18:44:29.011Z,54.60
2022-08-31T18:49:35.716Z,54.29
2022-08-31T18:54:39.939Z,54.60
2022-08-31T18:59:46.365Z,55.08
2022-08-31T19:04:51.136Z,54.88
2022-08-31T19:09:53.949Z,55.28
2022-08-31T19:14:57.699Z,55.04
2022-08-31T19:20:03.597Z,55.33
2022-08-31T19:25:09.333Z,55.42
2022-08-31T19:30:13.982Z,55.56
2022-08-31T19:35:17.881Z,55.83
2022-08-31T19:40:20.430Z,55.93
2022-08-31T19:45:23.611Z,56.44
2022-08-31T19:50:26.806Z,56.69
2022-08-31T19:55:31.482Z,56.81
2022-08-31T20:00:36.326Z,56.60
2022-08-31T20:05:42.396Z,56.65
2022-08-31T20:10:46.184Z,56.97
2022-08-31T20:15:48.633Z,57.09
2022-08-31T20:20:51.225Z,56.79
2022-08-31T20:25:53.578Z,57.11
2022-08-31T20:31:00.202Z,57.43
2022-08-31T20:36:14.241Z,57.65
2022-08-31T20:41:16.807Z,57.85
2022-08-31T20:46:37.514Z,57.92
2022-08-31T20:51:41.183Z,57.84
2022-08-31T20:56:43.839Z,58.24
2022-08-31T21:01:46.330Z,58.41
2022-08-31T21:06:49.215Z,58.48
2022-08-31T21:11:51.727Z,58.73
2022-08-31T21:16:55.769Z,58.80
2022-08-31T21:22:01.086Z,58.94
2022-08-31T21:27:04.227Z,58.83
2022-08-31T21:32:09.196Z,59.40
2022-08-31T21:37:11.638Z,59.15
2022-08-31T21:42:14.080Z,59.03
2022-08-31T21:47:16.497Z,59.22
2022-08-31T21:52:18.759Z,59.50
2022-08-31T21:57:22.565Z,59.67
2022-08-31T22:02:25.135Z,59.46
2022-08-31T22:07:27.585Z,59.77
2022-08-31T22:12:29.828Z,59.85
2022-08-31T22:17:55.846Z,59.77
2022-08-31T22:22:55.494Z,60.04
2022-08-31T22:27:58.159Z,60.35
2022-08-31T22:33:01.364Z,60.79
2022-08-31T22:38:03.737Z,60.91
2022-08-31T22:43:06.229Z,61.11
2022-08-31T22:48:08.629Z,61.49
2022-08-31T22:53:12.404Z,61.36
2022-08-31T22:58:14.736Z,61.84
2022-08-31T23:03:17.339Z,61.75
2022-08-31T23:08:22.661Z,62.20
2022-08-31T23:13:44.870Z,62.46
2022-08-31T23:18:48.711Z,62.40
2022-08-31T23:23:53.349Z,62.74
2022-08-31T23:28:58.119Z,62.81
2022-08-31T23:34:00.380Z,62.65
2022-08-31T23:39:05.159Z,62.95
2022-08-31T23:44:09.490Z,63.27
2022-08-31T23:49:15.323Z,63.45
2022-08-31T23:54:18.584Z,63.12
2022-08-31T23:59:21.114Z,63.43
